sensor_id;sensor_type;location;lat;lon;timestamp;temperature;humidity
65573;SHT30;52214;50.940;13.996;2023-02-02T00:00:41;19.12;72.36
65573;SHT30;52214;50.940;13.996;2023-02-02T00:03:07;19.15;72.43
65573;SHT30;52214;50.940;13.996;2023-02-02T00:05:32;19.11;72.44
65573;SHT30;52214;50.940;13.996;2023-02-02T00:07:58;19.15;72.48
65573;SHT30;52214;50.940;13.996;2023-02-02T00:10:23;19.12;72.43
65573;SHT30;52214;50.940;13.996;2023-02-02T00:12:48;19.10;72.41
65573;SHT30;52214;50.940;13.996;2023-02-02T00:15:13;19.11;72.39
65573;SHT30;52214;50.940;13.996;2023-02-02T00:17:39;19.12;72.36
65573;SHT30;52214;50.940;13.996;2023-02-02T00:20:04;19.12;72.30
65573;SHT30;52214;50.940;13.996;2023-02-02T00:22:29;19.12;72.34
65573;SHT30;52214;50.940;13.996;2023-02-02T00:24:55;19.12;72.27
65573;SHT30;52214;50.940;13.996;2023-02-02T00:27:20;19.11;72.26
65573;SHT30;52214;50.940;13.996;2023-02-02T00:29:45;19.11;72.39
65573;SHT30;52214;50.940;13.996;2023-02-02T00:32:10;19.15;72.43
65573;SHT30;52214;50.940;13.996;2023-02-02T00:34:35;19.15;72.43
65573;SHT30;52214;50.940;13.996;2023-02-02T00:37:01;19.15;72.49
65573;SHT30;52214;50.940;13.996;2023-02-02T00:39:26;19.18;72.44
65573;SHT30;52214;50.940;13.996;2023-02-02T00:41:52;19.20;72.43
65573;SHT30;52214;50.940;13.996;2023-02-02T00:44:17;19.21;72.45
65573;SHT30;52214;50.940;13.996;2023-02-02T00:47:02;19.22;72.45
65573;SHT30;52214;50.940;13.996;2023-02-02T00:49:27;19.21;72.45
65573;SHT30;52214;50.940;13.996;2023-02-02T00:51:52;19.22;72.46
65573;SHT30;52214;50.940;13.996;2023-02-02T00:54:18;19.27;72.46
65573;SHT30;52214;50.940;13.996;2023-02-02T00:56:43;19.24;72.40
65573;SHT30;52214;50.940;13.996;2023-02-02T00:59:08;19.28;72.41
65573;SHT30;52214;50.940;13.996;2023-02-02T01:01:34;19.28;72.35
65573;SHT30;52214;50.940;13.996;2023-02-02T01:03:59;19.27;72.29
65573;SHT30;52214;50.940;13.996;2023-02-02T01:06:25;19.27;72.24
65573;SHT30;52214;50.940;13.996;2023-02-02T01:08:51;19.25;72.25
65573;SHT30;52214;50.940;13.996;2023-02-02T01:11:16;19.27;72.25
65573;SHT30;52214;50.940;13.996;2023-02-02T01:13:42;19.25;72.25
65573;SHT30;52214;50.940;13.996;2023-02-02T01:16:08;19.28;72.20
65573;SHT30;52214;50.940;13.996;2023-02-02T01:18:34;19.27;72.22
65573;SHT30;52214;50.940;13.996;2023-02-02T01:21:01;19.27;72.20
65573;SHT30;52214;50.940;13.996;2023-02-02T01:23:27;19.25;72.15
65573;SHT30;52214;50.940;13.996;2023-02-02T01:25:57;19.27;72.17
65573;SHT30;52214;50.940;13.996;2023-02-02T01:28:24;19.25;72.17
65573;SHT30;52214;50.940;13.996;2023-02-02T01:30:49;19.25;72.22
65573;SHT30;52214;50.940;13.996;2023-02-02T01:33:16;19.27;72.29
65573;SHT30;52214;50.940;13.996;2023-02-02T01:35:52;19.28;72.29
65573;SHT30;52214;50.940;13.996;2023-02-02T01:38:18;19.27;72.33
65573;SHT30;52214;50.940;13.996;2023-02-02T01:40:52;19.28;72.40
65573;SHT30;52214;50.940;13.996;2023-02-02T01:46:14;19.28;72.49
65573;SHT30;52214;50.940;13.996;2023-02-02T01:48:41;19.28;72.52
65573;SHT30;52214;50.940;13.996;2023-02-02T01:51:16;19.28;72.56
65573;SHT30;52214;50.940;13.996;2023-02-02T01:53:42;19.28;72.62
65573;SHT30;52214;50.940;13.996;2023-02-02T01:56:09;19.27;72.68
65573;SHT30;52214;50.940;13.996;2023-02-02T01:58:38;19.27;72.76
65573;SHT30;52214;50.940;13.996;2023-02-02T02:01:05;19.24;72.90
65573;SHT30;52214;50.940;13.996;2023-02-02T02:03:32;19.27;72.94
65573;SHT30;52214;50.940;13.996;2023-02-02T02:06:02;19.24;73.08
65573;SHT30;52214;50.940;13.996;2023-02-02T02:08:33;19.27;72.97
65573;SHT30;52214;50.940;13.996;2023-02-02T02:11:00;19.25;73.08
65573;SHT30;52214;50.940;13.996;2023-02-02T02:13:26;19.25;72.95
65573;SHT30;52214;50.940;13.996;2023-02-02T02:16:27;19.24;73.03
65573;SHT30;52214;50.940;13.996;2023-02-02T02:19:09;19.22;73.12
65573;SHT30;52214;50.940;13.996;2023-02-02T02:21:50;19.24;73.09
65573;SHT30;52214;50.940;13.996;2023-02-02T02:31:18;19.34;72.96
65573;SHT30;52214;50.940;13.996;2023-02-02T02:36:42;19.24;72.94
65573;SHT30;52214;50.940;13.996;2023-02-02T02:39:16;19.24;72.92
65573;SHT30;52214;50.940;13.996;2023-02-02T02:41:49;19.21;72.83
65573;SHT30;52214;50.940;13.996;2023-02-02T02:44:17;19.22;72.80
65573;SHT30;52214;50.940;13.996;2023-02-02T02:46:44;19.20;72.76
65573;SHT30;52214;50.940;13.996;2023-02-02T02:49:11;19.15;72.74
65573;SHT30;52214;50.940;13.996;2023-02-02T02:51:51;19.17;72.71
65573;SHT30;52214;50.940;13.996;2023-02-02T02:54:26;19.15;72.63
65573;SHT30;52214;50.940;13.996;2023-02-02T03:05:19;19.12;72.47
65573;SHT30;52214;50.940;13.996;2023-02-02T03:08:06;19.12;72.43
65573;SHT30;52214;50.940;13.996;2023-02-02T03:10:34;19.10;72.39
65573;SHT30;52214;50.940;13.996;2023-02-02T03:13:00;19.08;72.38
65573;SHT30;52214;50.940;13.996;2023-02-02T03:15:25;19.10;72.35
65573;SHT30;52214;50.940;13.996;2023-02-02T03:17:52;19.08;72.35
65573;SHT30;52214;50.940;13.996;2023-02-02T03:20:19;19.08;72.28
65573;SHT30;52214;50.940;13.996;2023-02-02T03:22:44;19.07;72.28
65573;SHT30;52214;50.940;13.996;2023-02-02T03:25:09;19.06;72.24
65573;SHT30;52214;50.940;13.996;2023-02-02T03:27:36;19.04;72.26
65573;SHT30;52214;50.940;13.996;2023-02-02T03:30:03;19.04;72.23
65573;SHT30;52214;50.940;13.996;2023-02-02T03:32:28;19.06;72.18
65573;SHT30;52214;50.940;13.996;2023-02-02T03:34:54;19.04;72.06
65573;SHT30;52214;50.940;13.996;2023-02-02T03:37:19;19.06;72.04
65573;SHT30;52214;50.940;13.996;2023-02-02T03:39:44;19.04;72.07
65573;SHT30;52214;50.940;13.996;2023-02-02T03:42:09;19.08;72.03
65573;SHT30;52214;50.940;13.996;2023-02-02T03:44:35;19.07;72.01
65573;SHT30;52214;50.940;13.996;2023-02-02T03:47:00;19.07;72.04
65573;SHT30;52214;50.940;13.996;2023-02-02T03:49:25;19.06;72.04
65573;SHT30;52214;50.940;13.996;2023-02-02T03:51:50;19.10;72.06
65573;SHT30;52214;50.940;13.996;2023-02-02T03:54:15;19.10;72.03
65573;SHT30;52214;50.940;13.996;2023-02-02T03:56:41;19.07;72.03
65573;SHT30;52214;50.940;13.996;2023-02-02T03:59:06;19.06;72.06
65573;SHT30;52214;50.940;13.996;2023-02-02T04:01:31;19.08;71.99
65573;SHT30;52214;50.940;13.996;2023-02-02T04:03:57;19.08;71.99
65573;SHT30;52214;50.940;13.996;2023-02-02T04:06:23;19.10;71.98
65573;SHT30;52214;50.940;13.996;2023-02-02T04:08:48;19.08;71.95
65573;SHT30;52214;50.940;13.996;2023-02-02T04:11:14;19.10;71.92
65573;SHT30;52214;50.940;13.996;2023-02-02T04:13:39;19.08;71.96
65573;SHT30;52214;50.940;13.996;2023-02-02T04:16:07;19.08;71.95
65573;SHT30;52214;50.940;13.996;2023-02-02T04:18:33;19.10;71.92
65573;SHT30;52214;50.940;13.996;2023-02-02T04:20:59;19.10;71.91
65573;SHT30;52214;50.940;13.996;2023-02-02T04:23:26;19.12;71.91
65573;SHT30;52214;50.940;13.996;2023-02-02T04:25:51;19.12;71.89
65573;SHT30;52214;50.940;13.996;2023-02-02T04:28:17;19.12;71.94
65573;SHT30;52214;50.940;13.996;2023-02-02T04:30:42;19.11;71.90
65573;SHT30;52214;50.940;13.996;2023-02-02T04:33:07;19.11;71.95
65573;SHT30;52214;50.940;13.996;2023-02-02T04:35:32;19.12;71.96
65573;SHT30;52214;50.940;13.996;2023-02-02T04:37:58;19.11;71.94
65573;SHT30;52214;50.940;13.996;2023-02-02T04:40:24;19.14;71.97
65573;SHT30;52214;50.940;13.996;2023-02-02T04:42:50;19.11;71.95
65573;SHT30;52214;50.940;13.996;2023-02-02T04:45:15;19.12;71.95
65573;SHT30;52214;50.940;13.996;2023-02-02T04:47:41;19.15;71.95
65573;SHT30;52214;50.940;13.996;2023-02-02T04:50:06;19.12;71.94
65573;SHT30;52214;50.940;13.996;2023-02-02T04:52:32;19.11;71.90
65573;SHT30;52214;50.940;13.996;2023-02-02T04:54:57;19.15;71.93
65573;SHT30;52214;50.940;13.996;2023-02-02T04:57:22;19.17;71.93
65573;SHT30;52214;50.940;13.996;2023-02-02T04:59:47;19.15;71.90
65573;SHT30;52214;50.940;13.996;2023-02-02T05:02:13;19.15;71.93
65573;SHT30;52214;50.940;13.996;2023-02-02T05:04:38;19.15;71.95
65573;SHT30;52214;50.940;13.996;2023-02-02T05:07:03;19.14;71.93
65573;SHT30;52214;50.940;13.996;2023-02-02T05:09:28;19.14;71.89
65573;SHT30;52214;50.940;13.996;2023-02-02T05:11:54;19.15;71.89
65573;SHT30;52214;50.940;13.996;2023-02-02T05:14:19;19.17;71.84
65573;SHT30;52214;50.940;13.996;2023-02-02T05:16:44;19.12;71.82
65573;SHT30;52214;50.940;13.996;2023-02-02T05:19:10;19.17;71.87
65573;SHT30;52214;50.940;13.996;2023-02-02T05:21:35;19.15;71.83
65573;SHT30;52214;50.940;13.996;2023-02-02T05:24:01;19.17;71.79
65573;SHT30;52214;50.940;13.996;2023-02-02T05:26:27;19.15;71.77
65573;SHT30;52214;50.940;13.996;2023-02-02T05:28:52;19.14;71.77
65573;SHT30;52214;50.940;13.996;2023-02-02T05:31:18;19.14;71.73
65573;SHT30;52214;50.940;13.996;2023-02-02T05:33:44;19.17;71.73
65573;SHT30;52214;50.940;13.996;2023-02-02T05:36:09;19.14;71.72
65573;SHT30;52214;50.940;13.996;2023-02-02T05:38:35;19.15;71.73
65573;SHT30;52214;50.940;13.996;2023-02-02T05:41:00;19.15;71.73
65573;SHT30;52214;50.940;13.996;2023-02-02T05:43:27;19.17;71.73
65573;SHT30;52214;50.940;13.996;2023-02-02T05:45:52;19.15;71.68
65573;SHT30;52214;50.940;13.996;2023-02-02T05:48:18;19.15;71.72
65573;SHT30;52214;50.940;13.996;2023-02-02T05:50:47;19.15;71.73
65573;SHT30;52214;50.940;13.996;2023-02-02T05:53:15;19.17;71.74
65573;SHT30;52214;50.940;13.996;2023-02-02T05:55:40;19.15;71.76
65573;SHT30;52214;50.940;13.996;2023-02-02T05:58:05;19.15;71.77
65573;SHT30;52214;50.940;13.996;2023-02-02T06:00:30;19.15;71.76
65573;SHT30;52214;50.940;13.996;2023-02-02T06:02:56;19.15;71.73
65573;SHT30;52214;50.940;13.996;2023-02-02T06:05:21;19.18;71.73
65573;SHT30;52214;50.940;13.996;2023-02-02T06:07:46;19.17;71.70
65573;SHT30;52214;50.940;13.996;2023-02-02T06:10:11;19.17;71.65
65573;SHT30;52214;50.940;13.996;2023-02-02T06:12:37;19.17;71.61
65573;SHT30;52214;50.940;13.996;2023-02-02T06:15:03;19.17;71.60
65573;SHT30;52214;50.940;13.996;2023-02-02T06:17:28;19.14;71.63
65573;SHT30;52214;50.940;13.996;2023-02-02T06:19:53;19.14;71.59
65573;SHT30;52214;50.940;13.996;2023-02-02T06:22:18;19.15;71.55
65573;SHT30;52214;50.940;13.996;2023-02-02T06:24:44;19.14;71.55
65573;SHT30;52214;50.940;13.996;2023-02-02T06:27:09;19.15;71.59
65573;SHT30;52214;50.940;13.996;2023-02-02T06:29:34;19.15;71.61
65573;SHT30;52214;50.940;13.996;2023-02-02T06:31:59;19.15;71.56
65573;SHT30;52214;50.940;13.996;2023-02-02T06:34:24;19.15;71.66
65573;SHT30;52214;50.940;13.996;2023-02-02T06:36:50;19.14;71.63
65573;SHT30;52214;50.940;13.996;2023-02-02T06:39:15;19.17;71.58
65573;SHT30;52214;50.940;13.996;2023-02-02T06:41:40;19.15;71.59
65573;SHT30;52214;50.940;13.996;2023-02-02T06:44:06;19.15;71.62
65573;SHT30;52214;50.940;13.996;2023-02-02T06:46:31;19.14;71.63
65573;SHT30;52214;50.940;13.996;2023-02-02T06:48:56;19.17;71.65
65573;SHT30;52214;50.940;13.996;2023-02-02T06:51:21;19.17;71.63
65573;SHT30;52214;50.940;13.996;2023-02-02T06:53:47;19.18;71.60
65573;SHT30;52214;50.940;13.996;2023-02-02T06:56:15;19.15;71.62
65573;SHT30;52214;50.940;13.996;2023-02-02T06:58:41;19.15;71.58
65573;SHT30;52214;50.940;13.996;2023-02-02T07:01:11;19.14;71.63
65573;SHT30;52214;50.940;13.996;2023-02-02T07:03:37;19.17;71.56
65573;SHT30;52214;50.940;13.996;2023-02-02T07:06:16;19.17;71.53
65573;SHT30;52214;50.940;13.996;2023-02-02T07:08:42;19.17;71.52
65573;SHT30;52214;50.940;13.996;2023-02-02T07:11:08;19.15;71.43
65573;SHT30;52214;50.940;13.996;2023-02-02T07:13:33;19.17;71.42
65573;SHT30;52214;50.940;13.996;2023-02-02T07:15:58;19.15;71.45
65573;SHT30;52214;50.940;13.996;2023-02-02T07:18:24;19.14;71.44
65573;SHT30;52214;50.940;13.996;2023-02-02T07:20:49;19.15;71.48
65573;SHT30;52214;50.940;13.996;2023-02-02T07:23:14;19.14;71.44
65573;SHT30;52214;50.940;13.996;2023-02-02T07:25:40;19.15;71.44
65573;SHT30;52214;50.940;13.996;2023-02-02T07:28:05;19.15;71.47
65573;SHT30;52214;50.940;13.996;2023-02-02T07:30:30;19.14;71.42
65573;SHT30;52214;50.940;13.996;2023-02-02T07:32:56;19.15;71.44
65573;SHT30;52214;50.940;13.996;2023-02-02T07:35:21;19.14;71.42
65573;SHT30;52214;50.940;13.996;2023-02-02T07:37:51;19.12;71.47
65573;SHT30;52214;50.940;13.996;2023-02-02T07:40:17;19.14;71.44
65573;SHT30;52214;50.940;13.996;2023-02-02T07:42:45;19.17;71.42
65573;SHT30;52214;50.940;13.996;2023-02-02T07:45:10;19.14;71.41
65573;SHT30;52214;50.940;13.996;2023-02-02T07:47:35;19.17;71.39
65573;SHT30;52214;50.940;13.996;2023-02-02T07:50:00;19.15;71.38
65573;SHT30;52214;50.940;13.996;2023-02-02T07:52:28;19.15;71.38
65573;SHT30;52214;50.940;13.996;2023-02-02T07:55:02;19.15;71.31
65573;SHT30;52214;50.940;13.996;2023-02-02T07:57:27;19.14;71.33
65573;SHT30;52214;50.940;13.996;2023-02-02T07:59:52;19.15;71.30
65573;SHT30;52214;50.940;13.996;2023-02-02T08:02:18;19.14;71.24
65573;SHT30;52214;50.940;13.996;2023-02-02T08:04:43;19.15;71.26
65573;SHT30;52214;50.940;13.996;2023-02-02T08:07:11;19.15;71.27
65573;SHT30;52214;50.940;13.996;2023-02-02T08:09:36;19.15;71.28
65573;SHT30;52214;50.940;13.996;2023-02-02T08:12:02;19.15;71.26
65573;SHT30;52214;50.940;13.996;2023-02-02T08:14:28;19.12;71.27
65573;SHT30;52214;50.940;13.996;2023-02-02T08:16:53;19.15;71.28
65573;SHT30;52214;50.940;13.996;2023-02-02T08:19:19;19.12;71.36
65573;SHT30;52214;50.940;13.996;2023-02-02T08:21:44;19.14;71.35
65573;SHT30;52214;50.940;13.996;2023-02-02T08:24:09;19.12;71.36
65573;SHT30;52214;50.940;13.996;2023-02-02T08:26:34;19.15;71.35
65573;SHT30;52214;50.940;13.996;2023-02-02T08:29:05;19.15;71.40
65573;SHT30;52214;50.940;13.996;2023-02-02T08:31:39;19.15;71.37
65573;SHT30;52214;50.940;13.996;2023-02-02T08:34:06;19.14;71.36
65573;SHT30;52214;50.940;13.996;2023-02-02T08:36:31;19.15;71.36
65573;SHT30;52214;50.940;13.996;2023-02-02T08:39:01;19.15;71.36
65573;SHT30;52214;50.940;13.996;2023-02-02T08:41:27;19.17;71.33
65573;SHT30;52214;50.940;13.996;2023-02-02T08:43:52;19.15;71.28
65573;SHT30;52214;50.940;13.996;2023-02-02T08:46:18;19.14;71.25
65573;SHT30;52214;50.940;13.996;2023-02-02T08:48:44;19.15;71.24
65573;SHT30;52214;50.940;13.996;2023-02-02T08:51:12;19.14;71.25
65573;SHT30;52214;50.940;13.996;2023-02-02T08:53:39;19.17;71.21
65573;SHT30;52214;50.940;13.996;2023-02-02T08:56:08;19.15;71.25
65573;SHT30;52214;50.940;13.996;2023-02-02T08:58:34;19.14;71.29
65573;SHT30;52214;50.940;13.996;2023-02-02T09:01:03;19.14;71.27
65573;SHT30;52214;50.940;13.996;2023-02-02T09:03:29;19.15;71.22
65573;SHT30;52214;50.940;13.996;2023-02-02T09:05:55;19.15;71.19
65573;SHT30;52214;50.940;13.996;2023-02-02T09:08:20;19.17;71.25
65573;SHT30;52214;50.940;13.996;2023-02-02T09:10:45;19.17;71.26
65573;SHT30;52214;50.940;13.996;2023-02-02T09:13:10;19.17;71.21
65573;SHT30;52214;50.940;13.996;2023-02-02T09:15:36;19.12;71.22
65573;SHT30;52214;50.940;13.996;2023-02-02T09:18:01;19.14;71.19
65573;SHT30;52214;50.940;13.996;2023-02-02T09:20:26;19.15;71.25
65573;SHT30;52214;50.940;13.996;2023-02-02T09:22:54;19.15;71.25
65573;SHT30;52214;50.940;13.996;2023-02-02T09:25:20;19.14;71.21
65573;SHT30;52214;50.940;13.996;2023-02-02T09:27:45;19.15;71.24
65573;SHT30;52214;50.940;13.996;2023-02-02T09:30:11;19.14;71.18
65573;SHT30;52214;50.940;13.996;2023-02-02T09:32:36;19.15;71.14
65573;SHT30;52214;50.940;13.996;2023-02-02T09:35:01;19.15;71.17
65573;SHT30;52214;50.940;13.996;2023-02-02T09:37:26;19.14;71.15
65573;SHT30;52214;50.940;13.996;2023-02-02T09:39:52;19.17;71.09
65573;SHT30;52214;50.940;13.996;2023-02-02T09:45:00;19.15;71.18
65573;SHT30;52214;50.940;13.996;2023-02-02T09:48:17;19.14;71.19
65573;SHT30;52214;50.940;13.996;2023-02-02T09:50:51;19.15;71.16
65573;SHT30;52214;50.940;13.996;2023-02-02T09:55:48;19.15;71.15
65573;SHT30;52214;50.940;13.996;2023-02-02T09:58:31;19.17;71.16
65573;SHT30;52214;50.940;13.996;2023-02-02T10:01:11;19.15;71.18
65573;SHT30;52214;50.940;13.996;2023-02-02T10:03:47;19.15;71.15
65573;SHT30;52214;50.940;13.996;2023-02-02T10:12:17;19.15;71.17
65573;SHT30;52214;50.940;13.996;2023-02-02T10:14:58;19.15;71.16
65573;SHT30;52214;50.940;13.996;2023-02-02T10:17:37;19.18;71.13
65573;SHT30;52214;50.940;13.996;2023-02-02T10:20:16;19.14;71.16
65573;SHT30;52214;50.940;13.996;2023-02-02T10:22:43;19.17;71.12
65573;SHT30;52214;50.940;13.996;2023-02-02T10:25:12;19.15;71.09
65573;SHT30;52214;50.940;13.996;2023-02-02T10:27:40;19.17;71.11
65573;SHT30;52214;50.940;13.996;2023-02-02T10:30:17;19.17;71.06
65573;SHT30;52214;50.940;13.996;2023-02-02T10:32:47;19.15;71.08
65573;SHT30;52214;50.940;13.996;2023-02-02T10:35:32;19.15;71.06
65573;SHT30;52214;50.940;13.996;2023-02-02T10:40:53;19.17;71.05
65573;SHT30;52214;50.940;13.996;2023-02-02T10:46:22;19.17;71.08
65573;SHT30;52214;50.940;13.996;2023-02-02T10:48:49;19.15;71.07
65573;SHT30;52214;50.940;13.996;2023-02-02T10:51:19;19.15;71.04
65573;SHT30;52214;50.940;13.996;2023-02-02T10:53:49;19.15;71.12
65573;SHT30;52214;50.940;13.996;2023-02-02T10:56:17;19.15;71.07
65573;SHT30;52214;50.940;13.996;2023-02-02T10:58:47;19.15;71.06
65573;SHT30;52214;50.940;13.996;2023-02-02T11:01:14;19.15;71.05
65573;SHT30;52214;50.940;13.996;2023-02-02T11:03:42;19.15;71.06
65573;SHT30;52214;50.940;13.996;2023-02-02T11:06:10;19.15;71.06
65573;SHT30;52214;50.940;13.996;2023-02-02T11:08:55;19.17;71.05
65573;SHT30;52214;50.940;13.996;2023-02-02T11:11:32;19.18;71.02
65573;SHT30;52214;50.940;13.996;2023-02-02T11:16:29;19.15;71.08
65573;SHT30;52214;50.940;13.996;2023-02-02T11:18:55;19.17;71.06
65573;SHT30;52214;50.940;13.996;2023-02-02T11:21:26;19.18;71.06
65573;SHT30;52214;50.940;13.996;2023-02-02T11:26:24;19.18;70.99
65573;SHT30;52214;50.940;13.996;2023-02-02T11:28:51;19.17;70.98
65573;SHT30;52214;50.940;13.996;2023-02-02T11:31:36;19.18;70.97
65573;SHT30;52214;50.940;13.996;2023-02-02T11:34:15;19.18;70.91
65573;SHT30;52214;50.940;13.996;2023-02-02T11:37:03;19.17;70.92
65573;SHT30;52214;50.940;13.996;2023-02-02T11:39:34;19.15;70.97
65573;SHT30;52214;50.940;13.996;2023-02-02T11:42:05;19.14;71.03
65573;SHT30;52214;50.940;13.996;2023-02-02T11:44:32;19.17;70.96
65573;SHT30;52214;50.940;13.996;2023-02-02T11:47:01;19.17;70.97
65573;SHT30;52214;50.940;13.996;2023-02-02T11:49:27;19.15;70.98
65573;SHT30;52214;50.940;13.996;2023-02-02T11:51:57;19.18;71.02
65573;SHT30;52214;50.940;13.996;2023-02-02T11:54:28;19.17;70.99
65573;SHT30;52214;50.940;13.996;2023-02-02T11:56:56;19.17;70.97
65573;SHT30;52214;50.940;13.996;2023-02-02T11:59:35;19.18;71.03
65573;SHT30;52214;50.940;13.996;2023-02-02T12:04:46;19.20;71.04
65573;SHT30;52214;50.940;13.996;2023-02-02T12:07:34;19.18;71.02
65573;SHT30;52214;50.940;13.996;2023-02-02T12:12:56;19.20;71.02
65573;SHT30;52214;50.940;13.996;2023-02-02T12:15:45;19.21;70.99
65573;SHT30;52214;50.940;13.996;2023-02-02T12:21:29;19.21;71.04
65573;SHT30;52214;50.940;13.996;2023-02-02T12:24:17;19.20;71.03
65573;SHT30;52214;50.940;13.996;2023-02-02T12:26:55;19.22;71.00
65573;SHT30;52214;50.940;13.996;2023-02-02T12:29:32;19.21;70.99
65573;SHT30;52214;50.940;13.996;2023-02-02T12:32:23;19.20;70.93
65573;SHT30;52214;50.940;13.996;2023-02-02T12:38:00;19.21;70.94
65573;SHT30;52214;50.940;13.996;2023-02-02T12:40:40;19.20;70.96
65573;SHT30;52214;50.940;13.996;2023-02-02T12:43:39;19.18;70.96
65573;SHT30;52214;50.940;13.996;2023-02-02T12:46:32;19.18;70.97
65573;SHT30;52214;50.940;13.996;2023-02-02T12:49:23;19.20;70.93
65573;SHT30;52214;50.940;13.996;2023-02-02T12:55:15;19.21;70.96
65573;SHT30;52214;50.940;13.996;2023-02-02T13:03:21;19.20;70.99
65573;SHT30;52214;50.940;13.996;2023-02-02T13:08:46;19.21;71.01
65573;SHT30;52214;50.940;13.996;2023-02-02T13:11:19;19.20;71.06
65573;SHT30;52214;50.940;13.996;2023-02-02T13:14:16;19.20;71.02
65573;SHT30;52214;50.940;13.996;2023-02-02T13:16:49;19.20;71.02
65573;SHT30;52214;50.940;13.996;2023-02-02T13:19:32;19.20;71.04
65573;SHT30;52214;50.940;13.996;2023-02-02T13:21:59;19.18;71.05
65573;SHT30;52214;50.940;13.996;2023-02-02T13:24:29;19.18;71.04
65573;SHT30;52214;50.940;13.996;2023-02-02T13:26:58;19.21;71.04
65573;SHT30;52214;50.940;13.996;2023-02-02T13:29:32;19.21;71.03
65573;SHT30;52214;50.940;13.996;2023-02-02T13:32:04;19.21;70.99
65573;SHT30;52214;50.940;13.996;2023-02-02T13:39:40;19.24;71.05
65573;SHT30;52214;50.940;13.996;2023-02-02T13:42:17;19.21;71.04
65573;SHT30;52214;50.940;13.996;2023-02-02T13:44:49;19.21;71.03
65573;SHT30;52214;50.940;13.996;2023-02-02T13:47:26;19.17;71.09
65573;SHT30;52214;50.940;13.996;2023-02-02T13:50:00;19.20;71.09
65573;SHT30;52214;50.940;13.996;2023-02-02T13:57:54;19.21;71.08
65573;SHT30;52214;50.940;13.996;2023-02-02T14:00:33;19.20;71.08
65573;SHT30;52214;50.940;13.996;2023-02-02T14:03:03;19.21;71.10
65573;SHT30;52214;50.940;13.996;2023-02-02T14:05:33;19.21;71.10
65573;SHT30;52214;50.940;13.996;2023-02-02T14:08:04;19.20;71.11
65573;SHT30;52214;50.940;13.996;2023-02-02T14:10:33;19.20;71.07
65573;SHT30;52214;50.940;13.996;2023-02-02T14:13:12;19.20;71.10
65573;SHT30;52214;50.940;13.996;2023-02-02T14:16:02;19.21;71.13
65573;SHT30;52214;50.940;13.996;2023-02-02T14:29:34;19.20;71.08
65573;SHT30;52214;50.940;13.996;2023-02-02T14:32:31;19.21;71.05
65573;SHT30;52214;50.940;13.996;2023-02-02T14:38:03;19.21;71.05
65573;SHT30;52214;50.940;13.996;2023-02-02T14:40:47;19.18;71.05
65573;SHT30;52214;50.940;13.996;2023-02-02T14:43:41;19.21;71.09
65573;SHT30;52214;50.940;13.996;2023-02-02T14:48:42;19.21;71.12
65573;SHT30;52214;50.940;13.996;2023-02-02T14:51:17;19.20;71.15
65573;SHT30;52214;50.940;13.996;2023-02-02T14:53:48;19.20;71.19
65573;SHT30;52214;50.940;13.996;2023-02-02T14:56:15;19.20;71.11
65573;SHT30;52214;50.940;13.996;2023-02-02T14:58:52;19.20;71.15
65573;SHT30;52214;50.940;13.996;2023-02-02T15:03:53;19.22;71.30
65573;SHT30;52214;50.940;13.996;2023-02-02T15:06:29;19.22;71.38
65573;SHT30;52214;50.940;13.996;2023-02-02T15:14:44;19.20;71.35
65573;SHT30;52214;50.940;13.996;2023-02-02T15:17:20;19.18;71.33
65573;SHT30;52214;50.940;13.996;2023-02-02T15:19:51;19.21;71.37
65573;SHT30;52214;50.940;13.996;2023-02-02T15:22:29;19.18;71.39
65573;SHT30;52214;50.940;13.996;2023-02-02T15:24:57;19.15;71.39
65573;SHT30;52214;50.940;13.996;2023-02-02T15:27:23;19.15;71.39
65573;SHT30;52214;50.940;13.996;2023-02-02T15:29:52;19.18;71.39
65573;SHT30;52214;50.940;13.996;2023-02-02T15:32:21;19.17;71.38
65573;SHT30;52214;50.940;13.996;2023-02-02T15:34:58;19.20;71.36
65573;SHT30;52214;50.940;13.996;2023-02-02T15:37:29;19.17;71.38
65573;SHT30;52214;50.940;13.996;2023-02-02T15:40:01;19.20;71.37
65573;SHT30;52214;50.940;13.996;2023-02-02T15:42:48;19.20;71.33
65573;SHT30;52214;50.940;13.996;2023-02-02T15:47:51;19.18;71.34
65573;SHT30;52214;50.940;13.996;2023-02-02T15:50:18;19.21;71.35
65573;SHT30;52214;50.940;13.996;2023-02-02T15:52:46;19.20;71.39
65573;SHT30;52214;50.940;13.996;2023-02-02T15:55:19;19.18;71.35
65573;SHT30;52214;50.940;13.996;2023-02-02T15:57:46;19.21;71.32
65573;SHT30;52214;50.940;13.996;2023-02-02T16:00:28;19.17;71.33
65573;SHT30;52214;50.940;13.996;2023-02-02T16:08:05;19.17;71.31
65573;SHT30;52214;50.940;13.996;2023-02-02T16:10:32;19.17;71.36
65573;SHT30;52214;50.940;13.996;2023-02-02T16:12:58;19.18;71.29
65573;SHT30;52214;50.940;13.996;2023-02-02T16:15:26;19.15;71.36
65573;SHT30;52214;50.940;13.996;2023-02-02T16:18:00;19.17;71.34
65573;SHT30;52214;50.940;13.996;2023-02-02T16:20:27;19.17;71.32
65573;SHT30;52214;50.940;13.996;2023-02-02T16:22:55;19.17;71.30
65573;SHT30;52214;50.940;13.996;2023-02-02T16:25:24;19.15;71.36
65573;SHT30;52214;50.940;13.996;2023-02-02T16:27:49;19.17;71.33
65573;SHT30;52214;50.940;13.996;2023-02-02T16:30:32;19.18;71.36
65573;SHT30;52214;50.940;13.996;2023-02-02T16:33:39;19.17;71.31
65573;SHT30;52214;50.940;13.996;2023-02-02T16:36:23;19.17;71.35
65573;SHT30;52214;50.940;13.996;2023-02-02T16:38:49;19.17;71.35
65573;SHT30;52214;50.940;13.996;2023-02-02T16:41:34;19.14;71.33
65573;SHT30;52214;50.940;13.996;2023-02-02T16:44:38;19.15;71.36
65573;SHT30;52214;50.940;13.996;2023-02-02T16:50:27;19.17;71.35
65573;SHT30;52214;50.940;13.996;2023-02-02T16:52:56;19.17;71.30
65573;SHT30;52214;50.940;13.996;2023-02-02T16:55:22;19.18;71.30
65573;SHT30;52214;50.940;13.996;2023-02-02T16:57:48;19.17;71.34
65573;SHT30;52214;50.940;13.996;2023-02-02T17:00:20;19.18;71.28
65573;SHT30;52214;50.940;13.996;2023-02-02T17:02:48;19.15;71.28
65573;SHT30;52214;50.940;13.996;2023-02-02T17:05:22;19.17;71.25
65573;SHT30;52214;50.940;13.996;2023-02-02T17:07:50;19.15;71.27
65573;SHT30;52214;50.940;13.996;2023-02-02T17:10:27;19.17;71.28
65573;SHT30;52214;50.940;13.996;2023-02-02T17:12:58;19.14;71.31
65573;SHT30;52214;50.940;13.996;2023-02-02T17:17:52;19.15;71.28
65573;SHT30;52214;50.940;13.996;2023-02-02T17:20:18;19.15;71.28
65573;SHT30;52214;50.940;13.996;2023-02-02T17:22:46;19.15;71.30
65573;SHT30;52214;50.940;13.996;2023-02-02T17:25:26;19.15;71.29